createdAt,value
2024-05-09T00:00:48.875Z,39.74
2024-05-09T00:03:40.816Z,39.78
2024-05-09T00:06:09.302Z,39.91
2024-05-09T00:08:38.975Z,39.81
2024-05-09T00:11:07.049Z,39.77
2024-05-09T00:13:37.597Z,39.91
2024-05-09T00:16:06.274Z,39.65
2024-05-09T00:18:35.557Z,39.73
2024-05-09T00:21:07.527Z,39.87
2024-05-09T00:23:36.885Z,39.87
2024-05-09T00:26:05.173Z,39.86
2024-05-09T00:28:35.530Z,39.85
2024-05-09T00:31:03.664Z,39.76
2024-05-09T00:33:34.024Z,39.78
2024-05-09T00:36:02.071Z,39.71
2024-05-09T00:38:32.504Z,39.82
2024-05-09T00:41:00.663Z,39.71
2024-05-09T00:43:32.500Z,39.61
2024-05-09T00:46:01.772Z,39.86
2024-05-09T00:48:31.169Z,39.86
2024-05-09T00:50:59.269Z,39.71
2024-05-09T00:53:29.584Z,39.93
2024-05-09T00:55:57.511Z,39.82
2024-05-09T00:58:26.194Z,39.74
2024-05-09T01:00:55.366Z,39.82
2024-05-09T01:03:23.581Z,39.86
2024-05-09T01:05:51.814Z,39.72
2024-05-09T01:08:21.601Z,39.84
2024-05-09T01:10:49.878Z,39.91
2024-05-09T01:13:20.071Z,39.80
2024-05-09T01:15:49.905Z,39.65
2024-05-09T01:18:19.176Z,39.92
2024-05-09T01:20:47.310Z,39.83
2024-05-09T01:23:17.526Z,39.87
2024-05-09T01:25:46.413Z,39.69
2024-05-09T01:28:16.425Z,39.54
2024-05-09T01:30:44.826Z,39.82
2024-05-09T01:33:15.262Z,39.59
2024-05-09T01:35:43.536Z,39.70
2024-05-09T01:38:16.714Z,39.71
2024-05-09T01:40:45.245Z,39.75
2024-05-09T01:43:15.071Z,39.57
2024-05-09T01:45:43.066Z,39.88
2024-05-09T01:48:13.619Z,39.79
2024-05-09T01:50:43.135Z,39.70
2024-05-09T01:53:14.470Z,39.75
2024-05-09T01:55:43.228Z,39.73
2024-05-09T01:58:12.969Z,39.78
2024-05-09T02:00:42.811Z,39.63
2024-05-09T02:03:16.101Z,39.62
2024-05-09T02:05:51.765Z,39.75
2024-05-09T02:08:20.681Z,39.76
2024-05-09T02:10:50.760Z,39.72
2024-05-09T02:13:19.154Z,39.64
2024-05-09T02:15:52.078Z,39.51
2024-05-09T02:18:23.081Z,39.67
2024-05-09T02:20:52.570Z,39.73
2024-05-09T02:23:20.554Z,39.64
2024-05-09T02:25:48.620Z,39.64
2024-05-09T02:28:20.101Z,39.60
2024-05-09T02:30:48.082Z,39.69
2024-05-09T02:33:17.461Z,39.86
2024-05-09T02:35:45.631Z,39.69
2024-05-09T02:38:16.049Z,39.62
2024-05-09T02:40:44.011Z,39.59
2024-05-09T02:43:12.780Z,39.48
2024-05-09T02:45:42.488Z,39.71
2024-05-09T02:48:12.129Z,39.55
2024-05-09T02:50:44.069Z,39.60
2024-05-09T02:53:12.459Z,39.62
2024-05-09T02:55:42.306Z,39.78
2024-05-09T02:58:10.833Z,39.86
2024-05-09T03:00:42.750Z,39.78
2024-05-09T03:03:14.111Z,39.71
2024-05-09T03:05:46.474Z,39.67
2024-05-09T03:08:15.058Z,39.68
2024-05-09T03:10:44.522Z,39.62
2024-05-09T03:13:14.926Z,39.57
2024-05-09T03:15:45.520Z,39.65
2024-05-09T03:18:14.002Z,39.49
2024-05-09T03:20:46.596Z,39.69
2024-05-09T03:23:14.524Z,39.79
2024-05-09T03:25:43.836Z,39.63
2024-05-09T03:28:12.039Z,39.79
2024-05-09T03:30:42.575Z,39.62
2024-05-09T03:33:16.411Z,39.48
2024-05-09T03:35:45.443Z,39.66
2024-05-09T03:38:14.768Z,39.55
2024-05-09T03:40:46.320Z,39.44
2024-05-09T03:43:15.712Z,39.61
2024-05-09T03:45:43.679Z,39.58
2024-05-09T03:48:11.851Z,39.71
2024-05-09T03:50:41.631Z,39.59
2024-05-09T03:53:10.749Z,39.55
2024-05-09T03:55:40.206Z,39.65
2024-05-09T03:58:08.476Z,39.75
2024-05-09T04:00:40.136Z,39.62
2024-05-09T04:03:11.144Z,39.74
2024-05-09T04:05:43.714Z,39.55
2024-05-09T04:08:14.706Z,39.50
2024-05-09T04:10:45.243Z,39.59
2024-05-09T04:22:37.927Z,39.64
2024-05-09T04:25:06.170Z,39.68
2024-05-09T04:27:34.050Z,39.64
2024-05-09T04:30:03.737Z,39.69
2024-05-09T04:32:33.349Z,39.69
2024-05-09T04:35:02.647Z,39.62
2024-05-09T04:37:30.546Z,39.50
2024-05-09T04:39:58.682Z,39.61
2024-05-09T04:42:27.793Z,39.47
2024-05-09T04:44:58.770Z,39.45
2024-05-09T04:47:28.330Z,39.49
2024-05-09T04:49:56.326Z,39.38
2024-05-09T04:52:26.462Z,39.39
2024-05-09T04:54:54.797Z,39.38
2024-05-09T04:57:25.360Z,39.41
2024-05-09T04:59:53.359Z,39.43
2024-05-09T05:02:21.687Z,39.38
2024-05-09T05:04:51.059Z,39.46
2024-05-09T05:07:19.151Z,39.52
2024-05-09T05:09:49.381Z,39.44
2024-05-09T05:12:35.740Z,39.63
2024-05-09T05:15:05.205Z,39.47
2024-05-09T05:17:34.125Z,39.48
2024-05-09T05:20:04.849Z,39.58
2024-05-09T05:22:33.844Z,39.68
2024-05-09T05:25:03.142Z,39.72
2024-05-09T05:27:31.107Z,39.94
2024-05-09T05:29:59.181Z,40.09
2024-05-09T05:32:28.463Z,40.16
2024-05-09T05:34:56.791Z,40.23
2024-05-09T05:37:27.055Z,40.38
2024-05-09T05:39:55.062Z,40.54
2024-05-09T05:42:22.981Z,40.61
2024-05-09T05:44:52.151Z,40.57
2024-05-09T05:47:20.279Z,40.63
2024-05-09T05:49:48.304Z,40.63
2024-05-09T05:52:17.496Z,40.73
2024-05-09T05:54:48.341Z,40.79
2024-05-09T05:57:17.934Z,40.66
2024-05-09T05:59:45.979Z,40.48
2024-05-09T06:02:16.234Z,40.78
2024-05-09T06:04:44.491Z,40.77
2024-05-09T06:07:14.668Z,40.87
2024-05-09T06:09:42.641Z,41.05
2024-05-09T06:12:10.733Z,41.27
2024-05-09T06:14:40.109Z,41.37
2024-05-09T06:17:08.164Z,41.55
2024-05-09T06:19:36.286Z,41.78
2024-05-09T06:22:05.697Z,41.82
2024-05-09T06:24:33.638Z,41.99
2024-05-09T06:27:03.554Z,42.08
2024-05-09T06:29:32.915Z,42.05
2024-05-09T06:32:01.018Z,42.22
2024-05-09T06:34:31.534Z,42.20
2024-05-09T06:36:59.509Z,42.36
2024-05-09T06:39:29.792Z,42.34
2024-05-09T06:41:57.748Z,42.33
2024-05-09T06:44:25.862Z,42.49
2024-05-09T06:46:58.106Z,42.59
2024-05-09T06:49:28.988Z,42.61
2024-05-09T06:51:58.245Z,42.66
2024-05-09T06:54:26.149Z,42.77
2024-05-09T06:56:54.174Z,42.26
2024-05-09T06:59:23.446Z,42.28
2024-05-09T07:01:52.100Z,42.31
2024-05-09T07:04:21.522Z,42.15
2024-05-09T07:06:49.742Z,42.05
2024-05-09T07:09:19.994Z,42.05
2024-05-09T07:11:48.053Z,41.82
2024-05-09T07:14:16.019Z,41.69
2024-05-09T07:16:45.414Z,41.81
2024-05-09T07:19:13.678Z,41.91
2024-05-09T07:21:43.167Z,41.95
2024-05-09T07:24:11.093Z,41.96
2024-05-09T07:26:39.203Z,41.82
2024-05-09T07:29:08.730Z,41.84
2024-05-09T07:31:36.914Z,41.62
2024-05-09T07:34:07.105Z,41.55
2024-05-09T07:36:35.080Z,41.50
2024-05-09T07:39:03.150Z,41.43
2024-05-09T07:41:32.612Z,41.37
2024-05-09T07:44:00.643Z,41.24
2024-05-09T07:47:37.072Z,41.27
2024-05-09T07:53:20.477Z,41.00
2024-05-09T07:54:40.567Z,40.77
2024-05-09T07:57:08.631Z,40.73
2024-05-09T07:59:40.243Z,40.54
2024-05-09T08:02:08.453Z,40.53
2024-05-09T08:04:37.982Z,40.39
2024-05-09T08:07:06.109Z,40.43
2024-05-09T08:09:38.588Z,39.57
2024-05-09T08:12:09.136Z,39.94
2024-05-09T08:14:39.973Z,40.77
2024-05-09T08:17:08.061Z,41.00
2024-05-09T08:19:40.494Z,41.40
2024-05-09T08:22:09.266Z,41.83
2024-05-09T08:24:38.583Z,42.15
2024-05-09T08:27:06.472Z,42.42
2024-05-09T08:29:34.393Z,42.49
2024-05-09T08:32:05.636Z,42.79
2024-05-09T08:34:33.818Z,42.86
2024-05-09T08:37:12.722Z,42.66
2024-05-09T08:39:45.272Z,42.79
2024-05-09T08:42:14.404Z,43.33
2024-05-09T08:44:44.709Z,43.30
2024-05-09T08:47:12.886Z,43.18
2024-05-09T08:49:43.243Z,42.83
2024-05-09T08:52:11.222Z,42.83
2024-05-09T08:54:41.567Z,43.11
2024-05-09T08:57:09.564Z,43.33
2024-05-09T08:59:37.592Z,43.32
2024-05-09T09:02:06.762Z,43.50
2024-05-09T09:04:36.466Z,43.50
2024-05-09T09:07:06.458Z,43.62
2024-05-09T09:09:34.358Z,43.58
2024-05-09T09:12:05.773Z,43.86
2024-05-09T09:14:34.722Z,44.09
2024-05-09T09:17:15.964Z,44.15
2024-05-09T09:19:45.430Z,44.25
2024-05-09T09:22:14.994Z,44.44
2024-05-09T09:24:44.392Z,44.76
2024-05-09T09:27:15.542Z,44.51
2024-05-09T09:29:44.761Z,44.55
2024-05-09T09:32:12.705Z,44.25
2024-05-09T09:34:41.363Z,44.17
2024-05-09T09:37:11.138Z,44.28
2024-05-09T09:39:39.703Z,44.34
2024-05-09T09:42:09.086Z,44.19
2024-05-09T09:44:39.594Z,44.40
2024-05-09T09:47:11.340Z,44.25
2024-05-09T09:49:39.357Z,44.25
2024-05-09T09:52:11.148Z,44.16
2024-05-09T09:54:41.174Z,44.02
2024-05-09T09:57:10.675Z,43.17
2024-05-09T09:59:39.496Z,42.22
2024-05-09T10:02:08.994Z,41.70
2024-05-09T10:04:37.333Z,41.47
2024-05-09T10:07:08.434Z,41.55
2024-05-09T10:09:36.522Z,41.41
2024-05-09T10:12:10.619Z,40.69
2024-05-09T10:14:45.813Z,40.67
2024-05-09T10:17:15.568Z,40.08
2024-05-09T10:19:43.509Z,40.02
2024-05-09T10:22:14.176Z,39.49
2024-05-09T10:24:54.846Z,39.36
2024-05-09T10:27:27.850Z,39.26
2024-05-09T10:29:59.718Z,38.98
2024-05-09T10:32:29.094Z,39.31
2024-05-09T10:35:14.855Z,39.34
2024-05-09T10:37:46.122Z,39.20
2024-05-09T10:40:25.906Z,39.20
2024-05-09T10:42:59.559Z,38.67
2024-05-09T10:45:28.502Z,38.71
2024-05-09T10:47:57.918Z,38.80
2024-05-09T10:50:29.131Z,38.54
2024-05-09T10:53:03.850Z,38.83
2024-05-09T10:55:31.912Z,38.07
2024-05-09T10:58:02.203Z,37.78
2024-05-09T11:00:36.149Z,37.54
2024-05-09T11:03:06.246Z,37.43
2024-05-09T11:05:34.559Z,37.29
2024-05-09T11:08:04.193Z,37.46
2024-05-09T11:10:34.327Z,36.99
2024-05-09T11:13:04.417Z,36.98
2024-05-09T11:15:40.092Z,37.42
2024-05-09T11:18:27.135Z,37.40
2024-05-09T11:20:58.086Z,37.25
2024-05-09T11:23:27.053Z,37.40
2024-05-09T11:25:57.458Z,37.91
2024-05-09T11:28:27.946Z,37.63
2024-05-09T11:31:08.566Z,37.80
2024-05-09T11:33:43.728Z,38.09
2024-05-09T11:36:13.961Z,38.16
2024-05-09T11:38:41.959Z,38.47
2024-05-09T11:41:18.368Z,38.28
2024-05-09T11:43:47.785Z,38.36
2024-05-09T11:46:15.913Z,38.67
2024-05-09T11:48:44.069Z,38.72
2024-05-09T11:51:13.559Z,38.89
2024-05-09T11:53:41.603Z,39.16
2024-05-09T11:56:14.660Z,39.26
2024-05-09T11:58:42.688Z,39.00
2024-05-09T12:01:12.012Z,36.99
2024-05-09T12:03:40.062Z,38.71
2024-05-09T12:06:08.220Z,38.51
2024-05-09T12:08:37.865Z,38.77
2024-05-09T12:11:05.811Z,38.78
2024-05-09T12:13:36.099Z,38.71
2024-05-09T12:16:04.203Z,38.44
2024-05-09T12:18:33.783Z,38.43
2024-05-09T12:21:02.987Z,38.22
2024-05-09T12:23:31.083Z,38.12
2024-05-09T12:25:59.000Z,38.13
2024-05-09T12:28:28.345Z,38.34
2024-05-09T12:30:56.325Z,38.38
2024-05-09T12:33:26.630Z,38.38
2024-05-09T12:35:55.337Z,38.41
2024-05-09T12:38:24.656Z,38.50
2024-05-09T12:40:52.874Z,38.59
2024-05-09T12:52:53.734Z,38.70
2024-05-09T12:55:21.703Z,38.81
2024-05-09T12:57:49.644Z,38.78
2024-05-09T13:00:24.051Z,38.85
2024-05-09T13:03:00.635Z,38.87
2024-05-09T13:05:29.690Z,38.85
2024-05-09T13:08:00.326Z,38.86
2024-05-09T13:10:32.219Z,38.85
2024-05-09T13:13:02.645Z,38.82
2024-05-09T13:15:34.193Z,38.81
2024-05-09T13:18:04.117Z,38.89
2024-05-09T13:20:34.581Z,38.81
2024-05-09T13:23:06.349Z,38.72
2024-05-09T13:25:36.835Z,38.77
2024-05-09T13:28:07.320Z,38.74
2024-05-09T13:30:40.449Z,38.70
2024-05-09T13:33:14.024Z,38.77
2024-05-09T13:35:47.058Z,38.57
2024-05-09T13:38:20.636Z,38.78
2024-05-09T13:40:49.833Z,38.66
2024-05-09T13:43:21.567Z,38.68
2024-05-09T13:45:50.133Z,38.58
2024-05-09T13:48:19.682Z,38.59
2024-05-09T13:50:47.906Z,38.60
2024-05-09T13:53:18.085Z,38.58
2024-05-09T13:55:46.069Z,38.61
2024-05-09T13:58:14.428Z,38.50
2024-05-09T14:00:48.067Z,38.62
2024-05-09T14:03:20.887Z,38.59
2024-05-09T14:05:51.294Z,38.63
2024-05-09T14:08:22.528Z,38.62
2024-05-09T14:10:51.933Z,38.66
2024-05-09T14:13:21.306Z,38.54
2024-05-09T14:15:49.512Z,38.52
2024-05-09T14:18:19.827Z,38.44
2024-05-09T14:20:47.796Z,38.57
2024-05-09T14:23:18.112Z,38.47
2024-05-09T14:25:49.039Z,38.49
2024-05-09T14:28:21.895Z,38.40
2024-05-09T14:30:50.496Z,38.46
2024-05-09T14:33:25.090Z,38.42
2024-05-09T14:35:56.153Z,38.41
2024-05-09T14:38:24.304Z,38.42
2024-05-09T14:40:54.657Z,38.48
2024-05-09T14:43:22.636Z,38.45
2024-05-09T14:45:50.781Z,38.37
2024-05-09T14:48:20.279Z,38.55
2024-05-09T14:50:48.540Z,38.42
2024-05-09T14:53:18.752Z,38.41
2024-05-09T14:55:46.934Z,38.45
2024-05-09T14:58:15.255Z,38.28
2024-05-09T15:00:49.858Z,38.33
2024-05-09T15:03:21.671Z,38.33
2024-05-09T15:05:51.376Z,38.32
2024-05-09T15:08:21.134Z,38.36
2024-05-09T15:10:50.118Z,38.28
2024-05-09T15:13:20.810Z,38.30
2024-05-09T15:15:49.316Z,38.21
2024-05-09T15:18:18.815Z,38.36
2024-05-09T15:20:47.091Z,38.36
2024-05-09T15:23:17.411Z,38.18
2024-05-09T15:25:45.404Z,38.22
2024-05-09T15:28:13.422Z,38.13
2024-05-09T15:30:45.955Z,38.17
2024-05-09T15:33:14.967Z,38.25
2024-05-09T15:35:46.226Z,38.33
2024-05-09T15:38:14.739Z,38.15
2024-05-09T15:40:44.192Z,38.26
2024-05-09T15:43:12.517Z,38.15
2024-05-09T15:45:42.050Z,38.16
2024-05-09T15:48:10.745Z,38.19
2024-05-09T15:50:42.281Z,38.18
2024-05-09T15:53:13.048Z,38.09
2024-05-09T15:55:43.186Z,38.05
2024-05-09T15:58:12.019Z,38.26
2024-05-09T16:00:43.663Z,38.32
2024-05-09T16:03:14.239Z,38.18
2024-05-09T16:05:48.208Z,38.25
2024-05-09T16:08:16.747Z,38.28
2024-05-09T16:10:47.091Z,38.21
2024-05-09T16:13:16.287Z,38.22
2024-05-09T16:15:46.512Z,38.20
2024-05-09T16:18:14.718Z,38.18
2024-05-09T16:20:47.471Z,38.22
2024-05-09T16:23:17.854Z,38.18
2024-05-09T16:25:47.559Z,38.25
2024-05-09T16:28:15.899Z,38.37
2024-05-09T16:30:46.241Z,38.22
2024-05-09T16:33:14.308Z,38.11
2024-05-09T16:35:42.389Z,38.22
2024-05-09T16:38:11.495Z,38.20
2024-05-09T16:40:41.189Z,38.11
2024-05-09T16:43:12.822Z,38.26
2024-05-09T16:45:43.647Z,38.17
2024-05-09T16:48:13.927Z,38.16
2024-05-09T16:50:42.278Z,38.15
2024-05-09T16:53:13.496Z,38.14
2024-05-09T16:55:41.542Z,38.14
2024-05-09T16:58:12.092Z,38.21
2024-05-09T17:00:43.236Z,38.20
2024-05-09T17:03:15.310Z,38.18
2024-05-09T17:05:46.587Z,38.26
2024-05-09T17:08:20.008Z,37.99
2024-05-09T17:10:48.922Z,38.02
2024-05-09T17:13:19.308Z,38.09
2024-05-09T17:15:48.752Z,38.09
2024-05-09T17:18:18.230Z,38.05
2024-05-09T17:20:46.279Z,37.96
2024-05-09T17:23:14.614Z,38.13
2024-05-09T17:25:44.047Z,38.19
2024-05-09T17:28:12.297Z,38.16
2024-05-09T17:30:43.244Z,38.09
2024-05-09T17:33:12.751Z,38.13
2024-05-09T17:35:42.508Z,38.18
2024-05-09T17:38:10.480Z,38.11
2024-05-09T17:40:39.265Z,38.12
2024-05-09T17:43:10.599Z,38.23
2024-05-09T17:45:40.639Z,38.24
2024-05-09T17:48:11.829Z,38.24
2024-05-09T17:50:41.846Z,38.14
2024-05-09T17:53:11.582Z,38.24
2024-05-09T17:55:39.969Z,38.10
2024-05-09T17:58:09.796Z,38.13
2024-05-09T18:00:41.187Z,38.10
2024-05-09T18:03:13.247Z,38.15
2024-05-09T18:05:44.499Z,38.07
2024-05-09T18:08:14.522Z,38.23
2024-05-09T18:10:42.876Z,38.17
2024-05-09T18:13:12.774Z,38.17
2024-05-09T18:15:41.078Z,38.14
2024-05-09T18:18:11.703Z,38.09
2024-05-09T18:20:44.215Z,38.05
2024-05-09T18:23:17.744Z,38.07
2024-05-09T18:25:47.666Z,38.09
2024-05-09T18:28:17.767Z,38.10
2024-05-09T18:30:46.285Z,38.16
2024-05-09T18:33:16.831Z,38.10
2024-05-09T18:35:45.181Z,38.19
2024-05-09T18:38:15.554Z,38.12
2024-05-09T18:40:45.944Z,38.15
2024-05-09T18:43:17.650Z,38.17
2024-05-09T18:45:46.213Z,38.21
2024-05-09T18:48:16.626Z,38.08
2024-05-09T18:50:44.955Z,38.07
2024-05-09T18:53:14.408Z,37.99
2024-05-09T18:55:42.647Z,38.04
2024-05-09T18:58:12.393Z,38.03
2024-05-09T19:00:42.916Z,38.02
2024-05-09T19:03:15.203Z,37.98
2024-05-09T19:05:45.875Z,38.13
2024-05-09T19:08:17.100Z,38.15
2024-05-09T19:10:45.660Z,37.96
2024-05-09T19:13:16.271Z,38.06
2024-05-09T19:15:44.734Z,37.93
2024-05-09T19:18:14.900Z,38.13
2024-05-09T19:20:43.654Z,38.14
2024-05-09T19:23:13.150Z,38.13
2024-05-09T19:25:41.300Z,38.01
2024-05-09T19:28:11.735Z,38.15
2024-05-09T19:30:42.107Z,38.15
2024-05-09T19:33:13.687Z,38.02
2024-05-09T19:35:43.249Z,37.96
2024-05-09T19:38:12.900Z,38.13
2024-05-09T19:40:41.267Z,38.13
2024-05-09T19:43:11.725Z,38.00
2024-05-09T19:45:39.886Z,38.19
2024-05-09T19:48:10.569Z,38.04
2024-05-09T19:50:43.154Z,38.09
2024-05-09T19:53:15.117Z,38.03
2024-05-09T19:55:43.340Z,38.18
2024-05-09T19:58:13.934Z,38.07
2024-05-09T20:00:43.731Z,38.03
2024-05-09T20:03:15.196Z,38.06
2024-05-09T20:05:45.887Z,38.09
2024-05-09T20:08:16.124Z,37.97
2024-05-09T20:10:44.278Z,38.02
2024-05-09T20:13:13.791Z,38.02
2024-05-09T20:15:42.071Z,37.85
2024-05-09T20:18:12.542Z,38.11
2024-05-09T20:20:43.008Z,38.00
2024-05-09T20:23:14.426Z,37.92
2024-05-09T20:25:42.545Z,37.90
2024-05-09T20:28:12.795Z,37.93
2024-05-09T20:30:40.896Z,37.80
2024-05-09T20:33:09.886Z,38.10
2024-05-09T20:35:39.855Z,37.95
2024-05-09T20:38:07.837Z,38.08
2024-05-09T20:40:39.559Z,37.99
2024-05-09T20:43:09.749Z,38.00
2024-05-09T20:45:40.150Z,38.03
2024-05-09T20:48:08.919Z,37.87
2024-05-09T20:50:41.357Z,37.95
2024-05-09T20:53:12.874Z,38.00
2024-05-09T20:55:43.703Z,38.05
2024-05-09T20:58:12.561Z,37.92
2024-05-09T21:00:45.070Z,37.91
2024-05-09T21:03:16.629Z,37.94
2024-05-09T21:05:48.598Z,37.98
2024-05-09T21:08:17.067Z,38.05
2024-05-09T21:10:47.684Z,37.97
2024-05-09T21:13:15.954Z,38.03
2024-05-09T21:15:46.695Z,37.92
2024-05-09T21:18:14.827Z,37.81
2024-05-09T21:20:45.094Z,37.84
2024-05-09T21:23:13.243Z,37.90
2024-05-09T21:25:43.585Z,37.91
2024-05-09T21:28:11.539Z,37.87
2024-05-09T21:30:42.467Z,37.92
2024-05-09T21:33:14.213Z,37.96
2024-05-09T21:35:44.005Z,37.82
2024-05-09T21:38:14.633Z,38.08
2024-05-09T21:40:43.492Z,37.87
2024-05-09T21:43:13.066Z,38.04
2024-05-09T21:45:41.352Z,37.92
2024-05-09T21:48:12.449Z,37.82
2024-05-09T21:50:42.269Z,37.93
2024-05-09T21:53:12.953Z,37.97
2024-05-09T21:55:44.630Z,37.94
2024-05-09T21:58:14.258Z,37.95
2024-05-09T22:00:44.949Z,37.89
2024-05-09T22:03:14.975Z,37.94
2024-05-09T22:05:44.570Z,37.91
2024-05-09T22:08:14.300Z,38.04
2024-05-09T22:10:42.453Z,37.89
2024-05-09T22:13:12.120Z,37.92
2024-05-09T22:15:40.832Z,37.76
2024-05-09T22:18:11.664Z,38.02
2024-05-09T22:20:44.493Z,37.93
2024-05-09T22:23:15.689Z,37.82
2024-05-09T22:25:44.011Z,37.77
2024-05-09T22:28:15.122Z,37.72
2024-05-09T22:30:45.415Z,37.77
2024-05-09T22:33:14.875Z,37.78
2024-05-09T22:35:43.071Z,37.78
2024-05-09T22:38:13.434Z,37.80
2024-05-09T22:40:47.443Z,37.66
2024-05-09T22:43:20.695Z,37.90
2024-05-09T22:45:50.315Z,37.74
2024-05-09T22:48:20.136Z,37.76
2024-05-09T22:50:48.370Z,37.81
2024-05-09T22:53:18.683Z,37.81
2024-05-09T22:55:46.600Z,37.75
2024-05-09T22:58:14.481Z,37.74
2024-05-09T23:00:43.927Z,37.63
2024-05-09T23:03:13.891Z,37.61
2024-05-09T23:05:44.262Z,37.65
2024-05-09T23:08:12.279Z,37.65
2024-05-09T23:10:42.489Z,37.66
2024-05-09T23:13:10.460Z,37.62
2024-05-09T23:15:38.807Z,37.55
2024-05-09T23:18:08.589Z,37.61
2024-05-09T23:20:39.340Z,37.56
2024-05-09T23:23:11.123Z,37.51
2024-05-09T23:25:43.323Z,37.58
2024-05-09T23:28:12.672Z,37.52
2024-05-09T23:30:41.819Z,37.47
2024-05-09T23:33:12.885Z,37.51
2024-05-09T23:35:42.139Z,37.45
2024-05-09T23:38:11.611Z,37.41
2024-05-09T23:40:41.350Z,37.63
2024-05-09T23:43:12.472Z,37.49
2024-05-09T23:45:41.791Z,37.56
2024-05-09T23:48:11.622Z,37.58
2024-05-09T23:50:40.736Z,37.48
2024-05-09T23:53:11.158Z,37.36
2024-05-09T23:55:39.733Z,37.41
2024-05-09T23:58:11.127Z,37.46
